sensor_id;sensor_type;location;lat;lon;timestamp;temperature;humidity
30648;DHT22;17683;53.360;9.736;2022-11-10T00:02:02;11.40;99.90
30648;DHT22;17683;53.360;9.736;2022-11-10T00:04:28;11.40;99.90
30648;DHT22;17683;53.360;9.736;2022-11-10T00:06:54;11.40;99.90
30648;DHT22;17683;53.360;9.736;2022-11-10T00:09:19;11.40;99.90
30648;DHT22;17683;53.360;9.736;2022-11-10T00:11:45;11.40;99.90
30648;DHT22;17683;53.360;9.736;2022-11-10T00:14:11;11.30;99.90
30648;DHT22;17683;53.360;9.736;2022-11-10T00:16:55;11.30;99.90
30648;DHT22;17683;53.360;9.736;2022-11-10T00:19:27;11.30;99.90
30648;DHT22;17683;53.360;9.736;2022-11-10T00:21:53;11.20;99.90
30648;DHT22;17683;53.360;9.736;2022-11-10T00:24:20;11.20;99.90
30648;DHT22;17683;53.360;9.736;2022-11-10T00:26:45;11.20;99.90
30648;DHT22;17683;53.360;9.736;2022-11-10T00:29:11;11.20;99.90
30648;DHT22;17683;53.360;9.736;2022-11-10T00:31:38;11.20;99.90
30648;DHT22;17683;53.360;9.736;2022-11-10T00:34:04;11.20;99.90
30648;DHT22;17683;53.360;9.736;2022-11-10T00:36:30;11.20;99.90
30648;DHT22;17683;53.360;9.736;2022-11-10T00:38:56;11.10;99.90
30648;DHT22;17683;53.360;9.736;2022-11-10T00:41:21;11.10;99.90
30648;DHT22;17683;53.360;9.736;2022-11-10T00:43:47;11.10;99.90
30648;DHT22;17683;53.360;9.736;2022-11-10T00:46:14;11.00;99.90
30648;DHT22;17683;53.360;9.736;2022-11-10T00:48:40;11.00;99.90
30648;DHT22;17683;53.360;9.736;2022-11-10T00:51:05;11.00;99.90
30648;DHT22;17683;53.360;9.736;2022-11-10T00:53:31;10.90;99.90
30648;DHT22;17683;53.360;9.736;2022-11-10T00:55:57;10.90;99.90
30648;DHT22;17683;53.360;9.736;2022-11-10T00:58:23;10.90;99.90
30648;DHT22;17683;53.360;9.736;2022-11-10T01:00:48;10.90;99.90
30648;DHT22;17683;53.360;9.736;2022-11-10T01:03:15;10.90;99.90
30648;DHT22;17683;53.360;9.736;2022-11-10T01:05:43;10.90;99.90
30648;DHT22;17683;53.360;9.736;2022-11-10T01:08:09;10.80;99.90
30648;DHT22;17683;53.360;9.736;2022-11-10T01:10:35;10.80;99.90
30648;DHT22;17683;53.360;9.736;2022-11-10T01:13:00;10.70;99.90
30648;DHT22;17683;53.360;9.736;2022-11-10T01:15:26;10.70;99.90
30648;DHT22;17683;53.360;9.736;2022-11-10T01:17:53;10.70;99.90
30648;DHT22;17683;53.360;9.736;2022-11-10T01:20:20;10.70;99.90
30648;DHT22;17683;53.360;9.736;2022-11-10T01:22:46;10.60;99.90
30648;DHT22;17683;53.360;9.736;2022-11-10T01:25:11;10.60;99.90
30648;DHT22;17683;53.360;9.736;2022-11-10T01:27:37;10.60;99.90
30648;DHT22;17683;53.360;9.736;2022-11-10T01:30:03;10.60;99.90
30648;DHT22;17683;53.360;9.736;2022-11-10T01:32:29;10.60;99.90
30648;DHT22;17683;53.360;9.736;2022-11-10T01:34:55;10.60;99.90
30648;DHT22;17683;53.360;9.736;2022-11-10T01:37:22;10.60;99.90
30648;DHT22;17683;53.360;9.736;2022-11-10T01:39:48;10.60;99.90
30648;DHT22;17683;53.360;9.736;2022-11-10T01:42:14;10.50;99.90
30648;DHT22;17683;53.360;9.736;2022-11-10T01:44:40;10.50;99.90
30648;DHT22;17683;53.360;9.736;2022-11-10T01:47:06;10.40;99.90
30648;DHT22;17683;53.360;9.736;2022-11-10T01:49:33;10.40;99.90
30648;DHT22;17683;53.360;9.736;2022-11-10T01:52:12;10.40;99.90
30648;DHT22;17683;53.360;9.736;2022-11-10T01:54:43;10.40;99.90
30648;DHT22;17683;53.360;9.736;2022-11-10T01:57:11;10.40;99.90
30648;DHT22;17683;53.360;9.736;2022-11-10T01:59:42;10.30;99.90
30648;DHT22;17683;53.360;9.736;2022-11-10T02:02:20;10.40;99.90
30648;DHT22;17683;53.360;9.736;2022-11-10T02:04:50;10.40;99.90
30648;DHT22;17683;53.360;9.736;2022-11-10T02:07:18;10.40;99.90
30648;DHT22;17683;53.360;9.736;2022-11-10T02:09:44;10.40;99.90
30648;DHT22;17683;53.360;9.736;2022-11-10T02:12:10;10.30;99.90
30648;DHT22;17683;53.360;9.736;2022-11-10T02:14:36;10.30;99.90
30648;DHT22;17683;53.360;9.736;2022-11-10T02:17:02;10.30;99.90
30648;DHT22;17683;53.360;9.736;2022-11-10T02:19:28;10.30;99.90
30648;DHT22;17683;53.360;9.736;2022-11-10T02:21:54;10.30;99.90
30648;DHT22;17683;53.360;9.736;2022-11-10T02:24:20;10.30;99.90
30648;DHT22;17683;53.360;9.736;2022-11-10T02:26:52;10.30;99.90
30648;DHT22;17683;53.360;9.736;2022-11-10T02:29:19;10.30;99.90
30648;DHT22;17683;53.360;9.736;2022-11-10T02:31:45;10.30;99.90
30648;DHT22;17683;53.360;9.736;2022-11-10T02:34:10;10.30;99.90
30648;DHT22;17683;53.360;9.736;2022-11-10T02:36:36;10.30;99.90
30648;DHT22;17683;53.360;9.736;2022-11-10T02:39:02;10.30;99.90
30648;DHT22;17683;53.360;9.736;2022-11-10T02:41:28;10.30;99.90
30648;DHT22;17683;53.360;9.736;2022-11-10T02:43:55;10.20;99.90
30648;DHT22;17683;53.360;9.736;2022-11-10T02:46:21;10.20;99.90
30648;DHT22;17683;53.360;9.736;2022-11-10T02:48:47;10.20;99.90
30648;DHT22;17683;53.360;9.736;2022-11-10T02:51:12;10.20;99.90
30648;DHT22;17683;53.360;9.736;2022-11-10T02:53:38;10.20;99.90
30648;DHT22;17683;53.360;9.736;2022-11-10T02:56:04;10.10;99.90
30648;DHT22;17683;53.360;9.736;2022-11-10T02:58:30;10.10;99.90
30648;DHT22;17683;53.360;9.736;2022-11-10T03:00:56;10.10;99.90
30648;DHT22;17683;53.360;9.736;2022-11-10T03:03:22;10.10;99.90
30648;DHT22;17683;53.360;9.736;2022-11-10T03:05:48;10.10;99.90
30648;DHT22;17683;53.360;9.736;2022-11-10T03:08:14;10.10;99.90
30648;DHT22;17683;53.360;9.736;2022-11-10T03:10:40;10.10;99.90
30648;DHT22;17683;53.360;9.736;2022-11-10T03:13:05;10.10;99.90
30648;DHT22;17683;53.360;9.736;2022-11-10T03:15:31;10.20;99.90
30648;DHT22;17683;53.360;9.736;2022-11-10T03:18:03;10.20;99.90
30648;DHT22;17683;53.360;9.736;2022-11-10T03:20:29;10.30;99.90
30648;DHT22;17683;53.360;9.736;2022-11-10T03:23:04;10.20;99.90
30648;DHT22;17683;53.360;9.736;2022-11-10T03:25:30;10.30;99.90
30648;DHT22;17683;53.360;9.736;2022-11-10T03:27:56;10.30;99.90
30648;DHT22;17683;53.360;9.736;2022-11-10T03:30:22;10.30;99.90
30648;DHT22;17683;53.360;9.736;2022-11-10T03:32:48;10.30;99.90
30648;DHT22;17683;53.360;9.736;2022-11-10T03:35:13;10.30;99.90
30648;DHT22;17683;53.360;9.736;2022-11-10T03:37:42;10.40;99.90
30648;DHT22;17683;53.360;9.736;2022-11-10T03:40:09;10.40;99.90
30648;DHT22;17683;53.360;9.736;2022-11-10T03:42:35;10.40;99.90
30648;DHT22;17683;53.360;9.736;2022-11-10T03:45:01;10.40;99.90
30648;DHT22;17683;53.360;9.736;2022-11-10T03:47:26;10.40;99.90
30648;DHT22;17683;53.360;9.736;2022-11-10T03:49:52;10.40;99.90
30648;DHT22;17683;53.360;9.736;2022-11-10T03:52:18;10.40;99.90
30648;DHT22;17683;53.360;9.736;2022-11-10T03:54:43;10.50;99.90
30648;DHT22;17683;53.360;9.736;2022-11-10T03:57:09;10.40;99.90
30648;DHT22;17683;53.360;9.736;2022-11-10T03:59:35;10.50;99.90
30648;DHT22;17683;53.360;9.736;2022-11-10T04:02:00;10.50;99.90
30648;DHT22;17683;53.360;9.736;2022-11-10T04:04:26;10.50;99.90
30648;DHT22;17683;53.360;9.736;2022-11-10T04:07:13;10.50;99.90
30648;DHT22;17683;53.360;9.736;2022-11-10T04:09:57;10.50;99.90
30648;DHT22;17683;53.360;9.736;2022-11-10T04:12:23;10.50;99.90
30648;DHT22;17683;53.360;9.736;2022-11-10T04:15:10;10.50;99.90
30648;DHT22;17683;53.360;9.736;2022-11-10T04:17:54;10.50;99.90
30648;DHT22;17683;53.360;9.736;2022-11-10T04:20:40;10.50;99.90
30648;DHT22;17683;53.360;9.736;2022-11-10T04:23:06;10.50;99.90
30648;DHT22;17683;53.360;9.736;2022-11-10T04:25:50;10.50;99.90
30648;DHT22;17683;53.360;9.736;2022-11-10T04:28:34;10.50;99.90
30648;DHT22;17683;53.360;9.736;2022-11-10T04:31:00;10.50;99.90
30648;DHT22;17683;53.360;9.736;2022-11-10T04:33:26;10.50;99.90
30648;DHT22;17683;53.360;9.736;2022-11-10T04:35:51;10.50;99.90
30648;DHT22;17683;53.360;9.736;2022-11-10T04:38:17;10.50;99.90
30648;DHT22;17683;53.360;9.736;2022-11-10T04:40:43;10.50;99.90
30648;DHT22;17683;53.360;9.736;2022-11-10T04:43:09;10.50;99.90
30648;DHT22;17683;53.360;9.736;2022-11-10T04:45:34;10.50;99.90
30648;DHT22;17683;53.360;9.736;2022-11-10T04:48:00;10.40;99.90
30648;DHT22;17683;53.360;9.736;2022-11-10T04:50:26;10.40;99.90
30648;DHT22;17683;53.360;9.736;2022-11-10T04:52:51;10.40;99.90
30648;DHT22;17683;53.360;9.736;2022-11-10T04:55:17;10.40;99.90
30648;DHT22;17683;53.360;9.736;2022-11-10T04:57:43;10.40;99.90
30648;DHT22;17683;53.360;9.736;2022-11-10T05:00:09;10.40;99.90
30648;DHT22;17683;53.360;9.736;2022-11-10T05:02:35;10.30;99.90
30648;DHT22;17683;53.360;9.736;2022-11-10T05:05:01;10.30;99.90
30648;DHT22;17683;53.360;9.736;2022-11-10T05:07:28;10.30;99.90
30648;DHT22;17683;53.360;9.736;2022-11-10T05:09:54;10.30;99.90
30648;DHT22;17683;53.360;9.736;2022-11-10T05:12:19;10.30;99.90
30648;DHT22;17683;53.360;9.736;2022-11-10T05:14:45;10.30;99.90
30648;DHT22;17683;53.360;9.736;2022-11-10T05:17:11;10.30;99.90
30648;DHT22;17683;53.360;9.736;2022-11-10T05:19:36;10.20;99.90
30648;DHT22;17683;53.360;9.736;2022-11-10T05:22:02;10.20;99.90
30648;DHT22;17683;53.360;9.736;2022-11-10T05:24:28;10.20;99.90
30648;DHT22;17683;53.360;9.736;2022-11-10T05:26:53;10.20;99.90
30648;DHT22;17683;53.360;9.736;2022-11-10T05:29:19;10.10;99.90
30648;DHT22;17683;53.360;9.736;2022-11-10T05:31:45;10.10;99.90
30648;DHT22;17683;53.360;9.736;2022-11-10T05:34:10;10.10;99.90
30648;DHT22;17683;53.360;9.736;2022-11-10T05:36:36;10.10;99.90
30648;DHT22;17683;53.360;9.736;2022-11-10T05:39:02;10.10;99.90
30648;DHT22;17683;53.360;9.736;2022-11-10T05:41:27;10.10;99.90
30648;DHT22;17683;53.360;9.736;2022-11-10T05:43:53;10.10;99.90
30648;DHT22;17683;53.360;9.736;2022-11-10T05:46:19;10.00;99.90
30648;DHT22;17683;53.360;9.736;2022-11-10T05:48:46;9.90;99.90
30648;DHT22;17683;53.360;9.736;2022-11-10T05:51:12;9.90;99.90
30648;DHT22;17683;53.360;9.736;2022-11-10T05:53:37;9.90;99.90
30648;DHT22;17683;53.360;9.736;2022-11-10T05:56:03;9.90;99.90
30648;DHT22;17683;53.360;9.736;2022-11-10T05:58:29;9.90;99.90
30648;DHT22;17683;53.360;9.736;2022-11-10T06:00:55;9.80;99.90
30648;DHT22;17683;53.360;9.736;2022-11-10T06:03:21;9.80;99.90
30648;DHT22;17683;53.360;9.736;2022-11-10T06:05:47;9.90;99.90
30648;DHT22;17683;53.360;9.736;2022-11-10T06:08:13;9.80;99.90
30648;DHT22;17683;53.360;9.736;2022-11-10T06:10:39;9.80;99.90
30648;DHT22;17683;53.360;9.736;2022-11-10T06:13:05;9.70;99.90
30648;DHT22;17683;53.360;9.736;2022-11-10T06:15:31;9.70;99.90
30648;DHT22;17683;53.360;9.736;2022-11-10T06:17:57;9.70;99.90
30648;DHT22;17683;53.360;9.736;2022-11-10T06:20:24;9.70;99.90
30648;DHT22;17683;53.360;9.736;2022-11-10T06:23:08;9.70;99.90
30648;DHT22;17683;53.360;9.736;2022-11-10T06:25:35;9.70;99.90
30648;DHT22;17683;53.360;9.736;2022-11-10T06:28:02;9.80;99.90
30648;DHT22;17683;53.360;9.736;2022-11-10T06:30:30;9.80;99.90
30648;DHT22;17683;53.360;9.736;2022-11-10T06:32:56;9.80;99.90
30648;DHT22;17683;53.360;9.736;2022-11-10T06:35:23;9.80;99.90
30648;DHT22;17683;53.360;9.736;2022-11-10T06:37:59;9.70;99.90
30648;DHT22;17683;53.360;9.736;2022-11-10T06:40:25;9.70;99.90
30648;DHT22;17683;53.360;9.736;2022-11-10T06:42:51;9.70;99.90
30648;DHT22;17683;53.360;9.736;2022-11-10T06:45:17;9.70;99.90
30648;DHT22;17683;53.360;9.736;2022-11-10T06:47:43;9.80;99.90
30648;DHT22;17683;53.360;9.736;2022-11-10T06:50:09;9.80;99.90
30648;DHT22;17683;53.360;9.736;2022-11-10T06:52:35;9.80;99.90
30648;DHT22;17683;53.360;9.736;2022-11-10T06:55:01;9.90;99.90
30648;DHT22;17683;53.360;9.736;2022-11-10T06:57:26;9.90;99.90
30648;DHT22;17683;53.360;9.736;2022-11-10T06:59:52;9.90;99.90
30648;DHT22;17683;53.360;9.736;2022-11-10T07:02:18;9.80;99.90
30648;DHT22;17683;53.360;9.736;2022-11-10T07:04:44;9.90;99.90
30648;DHT22;17683;53.360;9.736;2022-11-10T07:07:10;9.90;99.90
30648;DHT22;17683;53.360;9.736;2022-11-10T07:09:36;10.00;99.90
30648;DHT22;17683;53.360;9.736;2022-11-10T07:12:03;10.00;99.90
30648;DHT22;17683;53.360;9.736;2022-11-10T07:14:29;10.00;99.90
30648;DHT22;17683;53.360;9.736;2022-11-10T07:16:55;10.00;99.90
30648;DHT22;17683;53.360;9.736;2022-11-10T07:19:20;10.00;99.90
30648;DHT22;17683;53.360;9.736;2022-11-10T07:21:46;10.00;99.90
30648;DHT22;17683;53.360;9.736;2022-11-10T07:24:12;10.00;99.90
30648;DHT22;17683;53.360;9.736;2022-11-10T07:26:37;10.10;99.90
30648;DHT22;17683;53.360;9.736;2022-11-10T07:29:03;10.00;99.90
30648;DHT22;17683;53.360;9.736;2022-11-10T07:31:29;10.10;99.90
30648;DHT22;17683;53.360;9.736;2022-11-10T07:33:54;10.10;99.90
30648;DHT22;17683;53.360;9.736;2022-11-10T07:36:20;10.10;99.90
30648;DHT22;17683;53.360;9.736;2022-11-10T07:38:46;10.20;99.90
30648;DHT22;17683;53.360;9.736;2022-11-10T07:41:11;10.20;99.90
30648;DHT22;17683;53.360;9.736;2022-11-10T07:43:37;10.20;99.90
30648;DHT22;17683;53.360;9.736;2022-11-10T07:46:03;10.30;99.90
30648;DHT22;17683;53.360;9.736;2022-11-10T07:48:29;10.30;99.90
30648;DHT22;17683;53.360;9.736;2022-11-10T07:50:54;10.30;99.90
30648;DHT22;17683;53.360;9.736;2022-11-10T07:53:20;10.30;99.90
30648;DHT22;17683;53.360;9.736;2022-11-10T07:55:46;10.40;99.90
30648;DHT22;17683;53.360;9.736;2022-11-10T07:58:15;10.40;99.90
30648;DHT22;17683;53.360;9.736;2022-11-10T08:00:41;10.40;99.90
30648;DHT22;17683;53.360;9.736;2022-11-10T08:03:13;10.50;99.90
30648;DHT22;17683;53.360;9.736;2022-11-10T08:05:39;10.50;99.90
30648;DHT22;17683;53.360;9.736;2022-11-10T08:08:05;10.50;99.90
30648;DHT22;17683;53.360;9.736;2022-11-10T08:10:32;10.60;99.90
30648;DHT22;17683;53.360;9.736;2022-11-10T08:13:00;10.60;99.90
30648;DHT22;17683;53.360;9.736;2022-11-10T08:15:28;10.60;99.90
30648;DHT22;17683;53.360;9.736;2022-11-10T08:17:58;10.60;99.90
30648;DHT22;17683;53.360;9.736;2022-11-10T08:20:24;10.60;99.90
30648;DHT22;17683;53.360;9.736;2022-11-10T08:23:01;10.70;99.90
30648;DHT22;17683;53.360;9.736;2022-11-10T08:25:28;10.70;99.90
30648;DHT22;17683;53.360;9.736;2022-11-10T08:28:07;10.70;99.90
30648;DHT22;17683;53.360;9.736;2022-11-10T08:30:34;10.70;99.90
30648;DHT22;17683;53.360;9.736;2022-11-10T08:33:01;10.70;99.90
30648;DHT22;17683;53.360;9.736;2022-11-10T08:35:30;10.80;99.90
30648;DHT22;17683;53.360;9.736;2022-11-10T08:37:56;10.80;99.90
30648;DHT22;17683;53.360;9.736;2022-11-10T08:40:22;10.90;99.90
30648;DHT22;17683;53.360;9.736;2022-11-10T08:42:59;11.00;99.90
30648;DHT22;17683;53.360;9.736;2022-11-10T08:45:25;11.00;99.90
30648;DHT22;17683;53.360;9.736;2022-11-10T08:47:58;11.10;99.90
30648;DHT22;17683;53.360;9.736;2022-11-10T08:50:25;11.10;99.90
30648;DHT22;17683;53.360;9.736;2022-11-10T08:52:51;11.10;99.90
30648;DHT22;17683;53.360;9.736;2022-11-10T08:55:17;11.10;99.90
30648;DHT22;17683;53.360;9.736;2022-11-10T08:57:45;11.10;99.90
30648;DHT22;17683;53.360;9.736;2022-11-10T09:00:12;11.10;99.90
30648;DHT22;17683;53.360;9.736;2022-11-10T09:02:38;11.10;99.90
30648;DHT22;17683;53.360;9.736;2022-11-10T09:05:04;11.10;99.90
30648;DHT22;17683;53.360;9.736;2022-11-10T09:07:30;11.10;99.90
30648;DHT22;17683;53.360;9.736;2022-11-10T09:09:56;11.20;99.90
30648;DHT22;17683;53.360;9.736;2022-11-10T09:12:22;11.20;99.90
30648;DHT22;17683;53.360;9.736;2022-11-10T09:14:47;11.30;99.90
30648;DHT22;17683;53.360;9.736;2022-11-10T09:17:13;11.40;99.90
30648;DHT22;17683;53.360;9.736;2022-11-10T09:19:39;11.50;99.90
30648;DHT22;17683;53.360;9.736;2022-11-10T09:22:04;11.60;99.90
30648;DHT22;17683;53.360;9.736;2022-11-10T09:24:30;11.60;99.90
30648;DHT22;17683;53.360;9.736;2022-11-10T09:26:56;11.70;99.90
30648;DHT22;17683;53.360;9.736;2022-11-10T09:29:22;11.70;99.90
30648;DHT22;17683;53.360;9.736;2022-11-10T09:31:49;11.70;99.90
30648;DHT22;17683;53.360;9.736;2022-11-10T09:34:15;11.80;99.90
30648;DHT22;17683;53.360;9.736;2022-11-10T09:36:41;11.70;99.90
30648;DHT22;17683;53.360;9.736;2022-11-10T09:39:07;11.70;99.90
30648;DHT22;17683;53.360;9.736;2022-11-10T09:41:37;11.80;99.90
30648;DHT22;17683;53.360;9.736;2022-11-10T09:46:41;11.80;99.90
30648;DHT22;17683;53.360;9.736;2022-11-10T09:49:37;11.80;99.90
30648;DHT22;17683;53.360;9.736;2022-11-10T09:52:04;11.80;99.90
30648;DHT22;17683;53.360;9.736;2022-11-10T09:54:58;11.80;99.90
30648;DHT22;17683;53.360;9.736;2022-11-10T09:57:26;11.90;99.90
30648;DHT22;17683;53.360;9.736;2022-11-10T09:59:53;11.90;99.90
30648;DHT22;17683;53.360;9.736;2022-11-10T10:02:31;12.00;99.90
30648;DHT22;17683;53.360;9.736;2022-11-10T10:08:10;12.10;99.90
30648;DHT22;17683;53.360;9.736;2022-11-10T10:10:44;12.10;99.90
30648;DHT22;17683;53.360;9.736;2022-11-10T10:23:53;12.60;99.90
30648;DHT22;17683;53.360;9.736;2022-11-10T10:26:28;12.70;99.90
30648;DHT22;17683;53.360;9.736;2022-11-10T10:29:18;12.70;99.90
30648;DHT22;17683;53.360;9.736;2022-11-10T10:31:47;12.70;99.90
30648;DHT22;17683;53.360;9.736;2022-11-10T10:34:16;12.80;99.90
30648;DHT22;17683;53.360;9.736;2022-11-10T10:36:42;12.80;99.90
30648;DHT22;17683;53.360;9.736;2022-11-10T10:41:48;12.80;99.90
30648;DHT22;17683;53.360;9.736;2022-11-10T10:44:16;12.90;99.90
30648;DHT22;17683;53.360;9.736;2022-11-10T10:47:02;12.90;99.90
30648;DHT22;17683;53.360;9.736;2022-11-10T10:49:30;13.00;99.90
30648;DHT22;17683;53.360;9.736;2022-11-10T10:52:12;13.00;99.90
30648;DHT22;17683;53.360;9.736;2022-11-10T10:54:38;13.00;99.90
30648;DHT22;17683;53.360;9.736;2022-11-10T10:57:25;13.00;99.90
30648;DHT22;17683;53.360;9.736;2022-11-10T11:00:20;13.00;99.90
30648;DHT22;17683;53.360;9.736;2022-11-10T11:03:10;13.00;99.90
30648;DHT22;17683;53.360;9.736;2022-11-10T11:05:37;13.10;99.90
30648;DHT22;17683;53.360;9.736;2022-11-10T11:08:03;13.00;99.90
30648;DHT22;17683;53.360;9.736;2022-11-10T11:10:34;13.10;99.90
30648;DHT22;17683;53.360;9.736;2022-11-10T11:13:26;13.20;99.90
30648;DHT22;17683;53.360;9.736;2022-11-10T11:16:04;13.30;99.90
30648;DHT22;17683;53.360;9.736;2022-11-10T11:18:33;13.30;99.90
30648;DHT22;17683;53.360;9.736;2022-11-10T11:21:11;13.30;99.90
30648;DHT22;17683;53.360;9.736;2022-11-10T11:26:54;13.40;99.90
30648;DHT22;17683;53.360;9.736;2022-11-10T11:29:29;13.40;99.90
30648;DHT22;17683;53.360;9.736;2022-11-10T11:35:17;13.40;99.90
30648;DHT22;17683;53.360;9.736;2022-11-10T11:37:55;13.50;99.90
30648;DHT22;17683;53.360;9.736;2022-11-10T11:46:13;13.60;99.90
30648;DHT22;17683;53.360;9.736;2022-11-10T11:51:26;13.50;99.90
30648;DHT22;17683;53.360;9.736;2022-11-10T11:56:31;13.50;99.90
30648;DHT22;17683;53.360;9.736;2022-11-10T12:15:52;13.70;99.90
30648;DHT22;17683;53.360;9.736;2022-11-10T12:18:29;13.70;99.90
30648;DHT22;17683;53.360;9.736;2022-11-10T12:21:05;13.70;99.90
30648;DHT22;17683;53.360;9.736;2022-11-10T12:23:58;13.70;99.90
30648;DHT22;17683;53.360;9.736;2022-11-10T12:26:43;13.70;99.90
30648;DHT22;17683;53.360;9.736;2022-11-10T12:29:51;13.70;99.90
30648;DHT22;17683;53.360;9.736;2022-11-10T12:32:27;13.70;99.90
30648;DHT22;17683;53.360;9.736;2022-11-10T12:35:30;13.80;99.90
30648;DHT22;17683;53.360;9.736;2022-11-10T12:40:37;13.80;99.90
30648;DHT22;17683;53.360;9.736;2022-11-10T12:43:35;13.70;99.90
30648;DHT22;17683;53.360;9.736;2022-11-10T12:46:03;13.60;99.90
30648;DHT22;17683;53.360;9.736;2022-11-10T12:51:16;13.60;99.90
30648;DHT22;17683;53.360;9.736;2022-11-10T12:53:47;13.60;99.90
30648;DHT22;17683;53.360;9.736;2022-11-10T12:56:21;13.50;99.90
30648;DHT22;17683;53.360;9.736;2022-11-10T13:01:41;13.50;99.90
30648;DHT22;17683;53.360;9.736;2022-11-10T13:04:12;13.50;99.90
30648;DHT22;17683;53.360;9.736;2022-11-10T13:06:45;13.50;99.90
30648;DHT22;17683;53.360;9.736;2022-11-10T13:09:28;13.50;99.90
30648;DHT22;17683;53.360;9.736;2022-11-10T13:14:44;13.50;99.90
30648;DHT22;17683;53.360;9.736;2022-11-10T13:19:58;13.40;99.90
30648;DHT22;17683;53.360;9.736;2022-11-10T13:22:30;13.50;99.90
30648;DHT22;17683;53.360;9.736;2022-11-10T13:28:00;13.40;99.90
30648;DHT22;17683;53.360;9.736;2022-11-10T13:30:42;13.40;99.90
30648;DHT22;17683;53.360;9.736;2022-11-10T13:33:38;13.40;99.90
30648;DHT22;17683;53.360;9.736;2022-11-10T13:36:04;13.50;99.90
30648;DHT22;17683;53.360;9.736;2022-11-10T13:38:41;13.50;99.90
30648;DHT22;17683;53.360;9.736;2022-11-10T13:41:17;13.50;99.90
30648;DHT22;17683;53.360;9.736;2022-11-10T13:43:50;13.50;99.90
30648;DHT22;17683;53.360;9.736;2022-11-10T13:46:17;13.50;99.90
30648;DHT22;17683;53.360;9.736;2022-11-10T13:49:00;13.50;99.90
30648;DHT22;17683;53.360;9.736;2022-11-10T13:51:41;13.50;99.90
30648;DHT22;17683;53.360;9.736;2022-11-10T13:54:27;13.50;99.90
30648;DHT22;17683;53.360;9.736;2022-11-10T13:57:30;13.50;99.90
30648;DHT22;17683;53.360;9.736;2022-11-10T14:02:53;13.50;99.90
30648;DHT22;17683;53.360;9.736;2022-11-10T14:08:11;13.50;99.90
30648;DHT22;17683;53.360;9.736;2022-11-10T14:10:43;13.50;99.90
30648;DHT22;17683;53.360;9.736;2022-11-10T14:15:52;13.50;99.90
30648;DHT22;17683;53.360;9.736;2022-11-10T14:18:25;13.50;99.90
30648;DHT22;17683;53.360;9.736;2022-11-10T14:21:00;13.50;99.90
30648;DHT22;17683;53.360;9.736;2022-11-10T14:23:47;13.50;99.90
30648;DHT22;17683;53.360;9.736;2022-11-10T14:26:49;13.50;99.90
30648;DHT22;17683;53.360;9.736;2022-11-10T14:29:27;13.50;99.90
30648;DHT22;17683;53.360;9.736;2022-11-10T14:31:56;13.50;99.90
30648;DHT22;17683;53.360;9.736;2022-11-10T14:34:22;13.50;99.90
30648;DHT22;17683;53.360;9.736;2022-11-10T14:36:50;13.40;99.90
30648;DHT22;17683;53.360;9.736;2022-11-10T14:39:16;13.50;99.90
30648;DHT22;17683;53.360;9.736;2022-11-10T14:41:46;13.40;99.90
30648;DHT22;17683;53.360;9.736;2022-11-10T14:44:22;13.40;99.90
30648;DHT22;17683;53.360;9.736;2022-11-10T14:46:48;13.40;99.90
30648;DHT22;17683;53.360;9.736;2022-11-10T14:49:23;13.40;99.90
30648;DHT22;17683;53.360;9.736;2022-11-10T14:51:57;13.40;99.90
30648;DHT22;17683;53.360;9.736;2022-11-10T14:54:27;13.50;99.90
30648;DHT22;17683;53.360;9.736;2022-11-10T14:56:53;13.40;99.90
30648;DHT22;17683;53.360;9.736;2022-11-10T14:59:21;13.40;99.90
30648;DHT22;17683;53.360;9.736;2022-11-10T15:01:55;13.40;99.90
30648;DHT22;17683;53.360;9.736;2022-11-10T15:04:29;13.30;99.90
30648;DHT22;17683;53.360;9.736;2022-11-10T15:06:56;13.40;99.90
30648;DHT22;17683;53.360;9.736;2022-11-10T15:09:29;13.40;99.90
30648;DHT22;17683;53.360;9.736;2022-11-10T15:12:07;13.40;99.90
30648;DHT22;17683;53.360;9.736;2022-11-10T15:14:44;13.40;99.90
30648;DHT22;17683;53.360;9.736;2022-11-10T15:17:15;13.40;99.90
30648;DHT22;17683;53.360;9.736;2022-11-10T15:22:19;13.40;99.90
30648;DHT22;17683;53.360;9.736;2022-11-10T15:24:47;13.40;99.90
30648;DHT22;17683;53.360;9.736;2022-11-10T15:27:40;13.40;99.90
30648;DHT22;17683;53.360;9.736;2022-11-10T15:30:20;13.40;99.90
30648;DHT22;17683;53.360;9.736;2022-11-10T15:32:47;13.30;99.90
30648;DHT22;17683;53.360;9.736;2022-11-10T15:35:30;13.40;99.90
30648;DHT22;17683;53.360;9.736;2022-11-10T15:38:32;13.40;99.90
30648;DHT22;17683;53.360;9.736;2022-11-10T15:40:56;13.40;99.90
30648;DHT22;17683;53.360;9.736;2022-11-10T15:43:28;13.40;99.90
30648;DHT22;17683;53.360;9.736;2022-11-10T15:46:02;13.30;99.90
30648;DHT22;17683;53.360;9.736;2022-11-10T15:48:48;13.40;99.90
30648;DHT22;17683;53.360;9.736;2022-11-10T15:51:16;13.30;99.90
30648;DHT22;17683;53.360;9.736;2022-11-10T15:53:45;13.40;99.90
30648;DHT22;17683;53.360;9.736;2022-11-10T15:56:18;13.40;99.90
30648;DHT22;17683;53.360;9.736;2022-11-10T15:58:48;13.30;99.90
30648;DHT22;17683;53.360;9.736;2022-11-10T16:01:15;13.40;99.90
30648;DHT22;17683;53.360;9.736;2022-11-10T16:03:42;13.40;99.90
30648;DHT22;17683;53.360;9.736;2022-11-10T16:06:13;13.40;99.90
30648;DHT22;17683;53.360;9.736;2022-11-10T16:08:40;13.30;99.90
30648;DHT22;17683;53.360;9.736;2022-11-10T16:11:18;13.40;99.90
30648;DHT22;17683;53.360;9.736;2022-11-10T16:13:45;13.40;99.90
30648;DHT22;17683;53.360;9.736;2022-11-10T16:16:16;13.40;99.90
30648;DHT22;17683;53.360;9.736;2022-11-10T16:18:43;13.40;99.90
30648;DHT22;17683;53.360;9.736;2022-11-10T16:21:13;13.40;99.90
30648;DHT22;17683;53.360;9.736;2022-11-10T16:23:40;13.40;99.90
30648;DHT22;17683;53.360;9.736;2022-11-10T16:26:06;13.40;99.90
30648;DHT22;17683;53.360;9.736;2022-11-10T16:28:32;13.30;99.90
30648;DHT22;17683;53.360;9.736;2022-11-10T16:30:58;13.40;99.90
30648;DHT22;17683;53.360;9.736;2022-11-10T16:33:24;13.40;99.90
30648;DHT22;17683;53.360;9.736;2022-11-10T16:35:53;13.40;99.90
30648;DHT22;17683;53.360;9.736;2022-11-10T16:38:25;13.40;99.90
30648;DHT22;17683;53.360;9.736;2022-11-10T16:40:58;13.40;99.90
30648;DHT22;17683;53.360;9.736;2022-11-10T16:43:24;13.40;99.90
30648;DHT22;17683;53.360;9.736;2022-11-10T16:45:52;13.40;99.90
30648;DHT22;17683;53.360;9.736;2022-11-10T16:48:25;13.40;99.90
30648;DHT22;17683;53.360;9.736;2022-11-10T16:50:53;13.40;99.90
30648;DHT22;17683;53.360;9.736;2022-11-10T16:53:22;13.40;99.90
30648;DHT22;17683;53.360;9.736;2022-11-10T16:55:49;13.40;99.90
30648;DHT22;17683;53.360;9.736;2022-11-10T16:58:14;13.40;99.90
30648;DHT22;17683;53.360;9.736;2022-11-10T17:00:40;13.40;99.90
30648;DHT22;17683;53.360;9.736;2022-11-10T17:05:38;13.40;99.90
30648;DHT22;17683;53.360;9.736;2022-11-10T17:08:04;13.40;99.90
30648;DHT22;17683;53.360;9.736;2022-11-10T17:10:30;13.40;99.90
30648;DHT22;17683;53.360;9.736;2022-11-10T17:12:56;13.40;99.90